createdAt,value
2017-11-06T00:00:13.555Z,6.40
2017-11-06T00:02:06.860Z,6.43
2017-11-06T00:03:06.634Z,6.33
2017-11-06T00:04:59.901Z,6.38
2017-11-06T00:05:59.584Z,6.40
2017-11-06T00:07:52.955Z,6.38
2017-11-06T00:08:52.581Z,6.35
2017-11-06T00:10:45.927Z,6.38
2017-11-06T00:11:45.856Z,6.36
2017-11-06T00:13:39.116Z,6.38
2017-11-06T00:14:38.748Z,6.36
2017-11-06T00:16:32.035Z,6.43
2017-11-06T00:17:32.058Z,6.35
2017-11-06T00:19:25.214Z,6.35
2017-11-06T00:20:24.866Z,6.32
2017-11-06T00:22:18.183Z,6.33
2017-11-06T00:23:17.895Z,6.28
2017-11-06T00:25:11.227Z,6.29
2017-11-06T00:26:10.976Z,6.35
2017-11-06T00:28:04.342Z,6.29
2017-11-06T00:29:04.154Z,6.28
2017-11-06T00:30:57.405Z,6.28
2017-11-06T00:31:57.148Z,6.25
2017-11-06T00:33:50.432Z,6.18
2017-11-06T00:34:50.221Z,6.19
2017-11-06T00:36:43.565Z,6.16
2017-11-06T00:37:43.343Z,6.22
2017-11-06T00:39:36.479Z,6.13
2017-11-06T00:40:36.355Z,6.19
2017-11-06T00:42:29.656Z,6.18
2017-11-06T00:43:29.355Z,6.16
2017-11-06T00:45:22.775Z,6.21
2017-11-06T00:46:22.450Z,6.16
2017-11-06T00:48:15.734Z,6.25
2017-11-06T00:49:15.424Z,6.18
2017-11-06T00:51:08.772Z,6.14
2017-11-06T00:52:08.720Z,6.13
2017-11-06T00:54:01.915Z,6.16
2017-11-06T00:55:01.949Z,6.09
2017-11-06T00:56:56.335Z,6.14
2017-11-06T00:57:56.286Z,6.14
2017-11-06T00:59:49.473Z,6.03
2017-11-06T01:00:49.255Z,6.11
2017-11-06T01:02:42.571Z,6.03
2017-11-06T01:03:42.322Z,6.06
2017-11-06T01:05:35.686Z,6.09
2017-11-06T01:06:35.491Z,6.00
2017-11-06T01:08:28.691Z,5.98
2017-11-06T01:09:28.400Z,5.93
2017-11-06T01:11:21.799Z,5.92
2017-11-06T01:12:21.440Z,5.85
2017-11-06T01:14:14.724Z,5.93
2017-11-06T01:15:14.418Z,5.89
2017-11-06T01:17:07.823Z,5.82
2017-11-06T01:18:07.531Z,5.86
2017-11-06T01:20:00.864Z,5.77
2017-11-06T01:21:00.581Z,5.77
2017-11-06T01:22:53.951Z,5.82
2017-11-06T01:23:53.718Z,5.82
2017-11-06T01:25:46.994Z,5.85
2017-11-06T01:26:46.986Z,5.81
2017-11-06T01:28:40.063Z,5.74
2017-11-06T01:29:39.976Z,5.71
2017-11-06T01:31:33.524Z,5.75
2017-11-06T01:32:32.926Z,5.73
2017-11-06T01:34:26.238Z,5.70
2017-11-06T01:35:25.883Z,5.74
2017-11-06T01:37:19.333Z,5.70
2017-11-06T01:38:18.953Z,5.71
2017-11-06T01:40:12.273Z,5.74
2017-11-06T01:41:11.967Z,5.70
2017-11-06T01:43:05.379Z,5.71
2017-11-06T01:44:05.221Z,5.66
2017-11-06T01:45:59.155Z,5.59
2017-11-06T01:46:58.715Z,5.63
2017-11-06T01:48:51.905Z,5.53
2017-11-06T01:49:51.933Z,5.56
2017-11-06T01:51:45.058Z,5.52
2017-11-06T01:52:44.939Z,5.43
2017-11-06T01:54:38.037Z,5.50
2017-11-06T01:55:37.944Z,5.48
2017-11-06T01:57:31.510Z,5.49
2017-11-06T01:58:30.882Z,5.52
2017-11-06T02:00:24.176Z,5.49
2017-11-06T02:01:23.914Z,5.43
2017-11-06T02:03:17.400Z,5.46
2017-11-06T02:04:17.221Z,5.48
2017-11-06T02:06:10.951Z,5.34
2017-11-06T02:07:10.630Z,5.32
2017-11-06T02:09:05.593Z,5.31
2017-11-06T02:10:05.268Z,5.34
2017-11-06T02:11:58.818Z,5.31
2017-11-06T02:12:59.155Z,5.32
2017-11-06T02:14:51.911Z,5.48
2017-11-06T02:15:51.912Z,5.46
2017-11-06T02:18:00.606Z,5.40
2017-11-06T02:19:00.437Z,5.40
2017-11-06T02:20:53.728Z,5.40
2017-11-06T02:21:53.460Z,5.34
2017-11-06T02:23:46.840Z,5.34
2017-11-06T02:24:46.442Z,5.38
2017-11-06T02:26:39.840Z,5.35
2017-11-06T02:27:39.664Z,5.37
2017-11-06T02:29:32.938Z,5.31
2017-11-06T02:30:32.584Z,5.30
2017-11-06T02:32:25.967Z,5.25
2017-11-06T02:33:25.884Z,5.31
2017-11-06T02:35:18.888Z,5.32
2017-11-06T02:36:18.880Z,5.20
2017-11-06T02:38:12.031Z,5.30
2017-11-06T02:39:11.811Z,5.19
2017-11-06T02:41:05.680Z,5.22
2017-11-06T02:42:05.395Z,5.22
2017-11-06T02:43:58.727Z,5.28
2017-11-06T02:44:58.676Z,5.22
2017-11-06T02:46:51.770Z,5.23
2017-11-06T02:47:51.585Z,5.22
2017-11-06T02:49:45.012Z,5.20
2017-11-06T02:50:44.456Z,5.22
2017-11-06T02:52:37.778Z,5.17
2017-11-06T02:53:37.605Z,5.13
2017-11-06T02:55:31.370Z,5.10
2017-11-06T02:56:30.567Z,5.25
2017-11-06T02:58:23.952Z,5.28
2017-11-06T02:59:23.989Z,5.12
2017-11-06T03:01:17.025Z,5.16
2017-11-06T03:02:16.844Z,5.09
2017-11-06T03:04:10.080Z,5.10
2017-11-06T03:05:09.974Z,5.05
2017-11-06T03:07:03.177Z,5.05
2017-11-06T03:08:02.984Z,5.10
2017-11-06T03:09:56.162Z,5.17
2017-11-06T03:10:55.825Z,5.19
2017-11-06T03:12:49.272Z,5.14
2017-11-06T03:13:48.948Z,5.12
2017-11-06T03:15:42.290Z,5.22
2017-11-06T03:16:42.104Z,5.16
2017-11-06T03:18:35.371Z,5.20
2017-11-06T03:19:35.106Z,5.07
2017-11-06T03:21:28.367Z,5.10
2017-11-06T03:22:28.206Z,5.04
2017-11-06T03:24:21.535Z,5.04
2017-11-06T03:25:21.149Z,5.04
2017-11-06T03:27:14.556Z,5.10
2017-11-06T03:28:14.413Z,5.05
2017-11-06T03:30:07.648Z,5.07
2017-11-06T03:31:07.337Z,5.02
2017-11-06T03:33:00.697Z,5.05
2017-11-06T03:34:00.365Z,4.99
2017-11-06T03:35:53.621Z,4.99
2017-11-06T03:36:53.460Z,5.04
2017-11-06T03:38:46.803Z,4.91
2017-11-06T03:39:46.657Z,4.88
2017-11-06T03:41:39.805Z,4.89
2017-11-06T03:42:39.568Z,4.84
2017-11-06T03:44:33.028Z,4.94
2017-11-06T03:45:32.760Z,4.92
2017-11-06T03:47:25.946Z,4.80
2017-11-06T03:48:25.740Z,4.89
2017-11-06T03:50:18.943Z,4.77
2017-11-06T03:51:18.701Z,4.80
2017-11-06T03:53:12.052Z,4.76
2017-11-06T03:54:11.740Z,4.84
2017-11-06T03:56:05.146Z,4.84
2017-11-06T03:57:04.851Z,4.75
2017-11-06T03:58:58.153Z,4.89
2017-11-06T03:59:57.915Z,4.86
2017-11-06T04:01:51.250Z,4.92
2017-11-06T04:02:50.859Z,4.79
2017-11-06T04:04:44.189Z,4.79
2017-11-06T04:05:43.992Z,4.80
2017-11-06T04:07:37.775Z,4.88
2017-11-06T04:08:37.078Z,4.92
2017-11-06T04:10:30.376Z,4.95
2017-11-06T04:11:30.133Z,4.95
2017-11-06T04:13:23.922Z,4.96
2017-11-06T04:14:23.694Z,4.92
2017-11-06T04:16:18.492Z,4.91
2017-11-06T04:17:18.489Z,4.88
2017-11-06T04:19:11.572Z,4.79
2017-11-06T04:20:11.376Z,4.84
2017-11-06T04:22:04.676Z,4.80
2017-11-06T04:23:04.452Z,4.76
2017-11-06T04:24:58.554Z,4.80
2017-11-06T04:25:58.343Z,4.72
2017-11-06T04:27:52.467Z,4.76
2017-11-06T04:28:52.163Z,4.79
2017-11-06T04:30:46.780Z,4.86
2017-11-06T04:31:46.523Z,4.89
2017-11-06T04:33:40.331Z,4.77
2017-11-06T04:34:39.635Z,4.84
2017-11-06T04:36:32.850Z,4.72
2017-11-06T04:37:32.843Z,4.72
2017-11-06T04:39:26.055Z,4.51
2017-11-06T04:40:25.742Z,4.55
2017-11-06T04:42:19.538Z,4.52
2017-11-06T04:43:19.373Z,4.51
2017-11-06T04:45:15.267Z,4.52
2017-11-06T04:46:12.862Z,4.52
2017-11-06T04:48:06.225Z,4.47
2017-11-06T04:49:05.857Z,4.46
2017-11-06T04:51:00.841Z,4.34
2017-11-06T04:52:01.071Z,4.32
2017-11-06T04:53:54.112Z,4.50
2017-11-06T04:54:53.536Z,4.51
2017-11-06T04:56:47.029Z,4.58
2017-11-06T04:57:46.636Z,4.46
2017-11-06T04:59:39.981Z,4.54
2017-11-06T05:00:39.715Z,4.47
2017-11-06T05:02:33.013Z,4.54
2017-11-06T05:03:32.739Z,4.55
2017-11-06T05:05:26.048Z,4.46
2017-11-06T05:06:25.681Z,4.51
2017-11-06T05:08:19.185Z,4.40
2017-11-06T05:09:18.824Z,4.43
2017-11-06T05:11:12.189Z,4.43
2017-11-06T05:12:12.024Z,4.24
2017-11-06T05:14:05.206Z,4.36
2017-11-06T05:15:04.944Z,4.28
2017-11-06T05:16:58.327Z,4.26
2017-11-06T05:17:58.066Z,4.36
2017-11-06T05:19:51.413Z,4.39
2017-11-06T05:20:51.167Z,4.50
2017-11-06T05:22:45.009Z,4.47
2017-11-06T05:23:44.314Z,4.51
2017-11-06T05:24:44.336Z,4.54
2017-11-06T05:25:44.470Z,4.54
2017-11-06T05:26:44.237Z,4.51
2017-11-06T05:27:44.279Z,4.43
2017-11-06T05:28:44.050Z,4.43
2017-11-06T05:29:44.151Z,4.40
2017-11-06T05:30:44.151Z,4.44
2017-11-06T05:31:44.073Z,4.43
2017-11-06T05:32:44.046Z,4.54
2017-11-06T05:33:44.129Z,4.47
2017-11-06T05:34:44.257Z,4.50
2017-11-06T05:35:43.886Z,4.54
2017-11-06T05:36:44.587Z,4.51
2017-11-06T05:37:43.811Z,4.44
2017-11-06T05:38:43.667Z,4.43
2017-11-06T05:39:43.719Z,4.44
2017-11-06T05:40:43.747Z,4.52
2017-11-06T05:41:43.635Z,4.47
2017-11-06T05:42:43.325Z,4.54
2017-11-06T05:43:43.418Z,4.52
2017-11-06T05:44:43.289Z,4.51
2017-11-06T05:45:43.453Z,4.52
2017-11-06T05:46:43.349Z,4.46
2017-11-06T05:47:43.273Z,4.54
2017-11-06T05:48:43.254Z,4.61
2017-11-06T05:49:43.013Z,4.64
2017-11-06T05:50:43.282Z,4.62
2017-11-06T05:51:43.407Z,4.62
2017-11-06T05:52:43.175Z,4.65
2017-11-06T05:53:43.096Z,4.69
2017-11-06T05:54:42.737Z,4.62
2017-11-06T05:55:42.582Z,4.67
2017-11-06T05:56:42.641Z,4.73
2017-11-06T05:57:42.508Z,4.69
2017-11-06T05:58:42.440Z,4.73
2017-11-06T05:59:42.410Z,4.76
2017-11-06T06:00:42.352Z,4.69
2017-11-06T06:01:42.330Z,4.62
2017-11-06T06:02:42.264Z,4.75
2017-11-06T06:03:42.222Z,4.77
2017-11-06T06:04:42.165Z,4.76
2017-11-06T06:05:42.134Z,4.77
2017-11-06T06:06:42.080Z,4.76
2017-11-06T06:07:42.047Z,4.75
2017-11-06T06:08:41.993Z,4.73
2017-11-06T06:09:41.971Z,4.72
2017-11-06T06:10:41.907Z,4.76
2017-11-06T06:11:41.865Z,4.70
2017-11-06T06:12:41.822Z,4.73
2017-11-06T06:13:41.784Z,4.73
2017-11-06T06:14:41.729Z,4.75
2017-11-06T06:15:41.690Z,4.70
2017-11-06T06:16:41.642Z,4.79
2017-11-06T06:17:41.592Z,4.76
2017-11-06T06:18:41.562Z,4.89
2017-11-06T06:19:41.504Z,4.86
2017-11-06T06:20:41.469Z,4.79
2017-11-06T06:21:41.414Z,4.80
2017-11-06T06:22:41.374Z,4.73
2017-11-06T06:23:41.334Z,4.73
2017-11-06T06:24:41.294Z,4.65
2017-11-06T06:25:41.256Z,4.72
2017-11-06T06:26:41.198Z,4.65
2017-11-06T06:27:41.164Z,4.64
2017-11-06T06:28:41.143Z,4.55
2017-11-06T06:29:41.076Z,4.55
2017-11-06T06:30:41.031Z,4.50
2017-11-06T06:31:41.006Z,4.42
2017-11-06T06:32:40.936Z,4.57
2017-11-06T06:33:40.901Z,4.44
2017-11-06T06:34:40.849Z,4.46
2017-11-06T06:35:40.810Z,4.39
2017-11-06T06:36:40.764Z,4.44
2017-11-06T06:37:40.726Z,4.51
2017-11-06T06:38:40.670Z,4.50
2017-11-06T06:39:40.639Z,4.50
2017-11-06T06:40:40.591Z,4.62
2017-11-06T06:41:40.550Z,4.58
2017-11-06T06:42:40.496Z,4.70
2017-11-06T06:43:40.515Z,4.65
2017-11-06T06:44:40.434Z,4.67
2017-11-06T06:45:40.380Z,4.65
2017-11-06T06:46:40.353Z,4.64
2017-11-06T06:47:40.306Z,4.58
2017-11-06T06:48:40.237Z,4.64
2017-11-06T06:49:40.193Z,4.64
2017-11-06T06:50:40.140Z,4.64
2017-11-06T06:51:40.097Z,4.62
2017-11-06T06:52:40.221Z,4.58
2017-11-06T06:53:40.041Z,4.62
2017-11-06T06:54:39.970Z,4.69
2017-11-06T06:55:39.942Z,4.62
2017-11-06T06:56:39.888Z,4.65
2017-11-06T06:57:39.830Z,4.69
2017-11-06T06:58:39.801Z,4.64
2017-11-06T06:59:39.756Z,4.62
2017-11-06T07:00:39.708Z,4.51
2017-11-06T07:01:39.724Z,4.52
2017-11-06T07:02:39.626Z,4.64
2017-11-06T07:03:39.567Z,4.59
2017-11-06T07:04:39.531Z,4.69
2017-11-06T07:05:39.496Z,4.70
2017-11-06T07:06:39.460Z,4.77
2017-11-06T07:07:39.392Z,4.80
2017-11-06T07:08:39.423Z,4.89
2017-11-06T07:09:39.358Z,5.01
2017-11-06T07:10:39.287Z,4.96
2017-11-06T07:11:39.214Z,5.01
2017-11-06T07:12:39.187Z,5.04
2017-11-06T07:13:39.132Z,5.07
2017-11-06T07:14:39.114Z,5.04
2017-11-06T07:15:39.049Z,5.09
2017-11-06T07:16:39.012Z,5.02
2017-11-06T07:17:38.967Z,5.04
2017-11-06T07:18:38.917Z,5.01
2017-11-06T07:19:38.882Z,5.13
2017-11-06T07:20:38.836Z,5.16
2017-11-06T07:21:38.795Z,5.13
2017-11-06T07:22:38.748Z,5.10
2017-11-06T07:23:38.742Z,5.19
2017-11-06T07:24:38.666Z,5.25
2017-11-06T07:25:38.624Z,5.27
2017-11-06T07:26:38.608Z,5.34
2017-11-06T07:27:38.528Z,5.40
2017-11-06T07:28:38.503Z,5.32
2017-11-06T07:29:38.433Z,5.38
2017-11-06T07:30:38.391Z,5.31
2017-11-06T07:31:38.355Z,5.38
2017-11-06T07:32:38.320Z,5.34
2017-11-06T07:33:38.268Z,5.43
2017-11-06T07:34:38.230Z,5.49
2017-11-06T07:35:38.188Z,5.50
2017-11-06T07:36:38.138Z,5.57
2017-11-06T07:37:38.102Z,5.60
2017-11-06T07:38:38.047Z,5.73
2017-11-06T07:39:38.027Z,5.78
2017-11-06T07:40:37.974Z,5.73
2017-11-06T07:41:37.924Z,5.85
2017-11-06T07:42:37.911Z,5.82
2017-11-06T07:43:37.848Z,5.95
2017-11-06T07:44:37.790Z,5.93
2017-11-06T07:45:37.757Z,6.07
2017-11-06T07:46:37.720Z,6.04
2017-11-06T07:47:37.674Z,6.13
2017-11-06T07:48:37.619Z,5.96
2017-11-06T07:49:37.576Z,5.91
2017-11-06T07:50:37.531Z,5.96
2017-11-06T07:51:37.506Z,5.98
2017-11-06T07:52:37.453Z,6.07
2017-11-06T07:53:37.457Z,6.11
2017-11-06T07:54:37.361Z,6.13
2017-11-06T07:55:37.338Z,6.26
2017-11-06T07:56:37.283Z,6.36
2017-11-06T07:57:37.246Z,6.47
2017-11-06T07:58:37.185Z,6.44
2017-11-06T07:59:37.148Z,6.50
2017-11-06T08:00:37.109Z,6.54
2017-11-06T08:01:37.069Z,6.53
2017-11-06T08:02:37.015Z,6.50
2017-11-06T08:03:36.986Z,6.43
2017-11-06T08:04:36.943Z,6.36
2017-11-06T08:05:36.895Z,6.30
2017-11-06T08:06:36.856Z,6.22
2017-11-06T08:07:36.813Z,6.35
2017-11-06T08:08:36.774Z,6.32
2017-11-06T08:09:36.727Z,6.53
2017-11-06T08:10:36.682Z,6.54
2017-11-06T08:11:36.636Z,6.79
2017-11-06T08:12:36.619Z,6.99
2017-11-06T08:13:36.550Z,7.09
2017-11-06T08:14:36.536Z,7.27
2017-11-06T08:15:36.504Z,7.47
2017-11-06T08:16:36.441Z,7.56
2017-11-06T08:17:36.399Z,7.40
2017-11-06T08:18:36.373Z,7.45
2017-11-06T08:19:36.331Z,7.29
2017-11-06T08:20:36.275Z,7.23
2017-11-06T08:21:36.241Z,7.01
2017-11-06T08:22:36.185Z,6.69
2017-11-06T08:23:36.140Z,6.54
2017-11-06T08:24:36.100Z,6.50
2017-11-06T08:25:36.206Z,6.69
2017-11-06T08:26:36.014Z,6.61
2017-11-06T08:27:36.017Z,6.72
2017-11-06T08:28:35.944Z,6.83
2017-11-06T08:29:35.914Z,6.97
2017-11-06T08:30:35.938Z,6.98
2017-11-06T08:31:35.842Z,6.84
2017-11-06T08:32:35.789Z,6.86
2017-11-06T08:33:35.775Z,6.69
2017-11-06T08:34:35.737Z,6.50
2017-11-06T08:35:35.688Z,6.54
2017-11-06T08:36:35.630Z,6.51
2017-11-06T08:37:35.615Z,6.68
2017-11-06T08:38:35.552Z,6.89
2017-11-06T08:39:35.512Z,6.86
2017-11-06T08:40:35.467Z,7.42
2017-11-06T08:41:35.425Z,7.53
2017-11-06T08:42:35.379Z,7.04
2017-11-06T08:43:35.352Z,7.19
2017-11-06T08:44:35.312Z,7.24
2017-11-06T08:45:35.281Z,7.13
2017-11-06T08:46:35.241Z,7.08
2017-11-06T08:47:35.187Z,7.02
2017-11-06T08:48:35.133Z,6.76
2017-11-06T08:49:35.088Z,6.87
2017-11-06T08:50:35.056Z,6.71
2017-11-06T08:51:35.000Z,6.50
2017-11-06T08:52:34.969Z,6.53
2017-11-06T08:53:34.927Z,6.66
2017-11-06T08:54:34.881Z,6.72
2017-11-06T08:55:34.845Z,6.73
2017-11-06T08:56:34.803Z,6.56
2017-11-06T08:57:34.773Z,6.53
2017-11-06T08:58:34.723Z,6.48
2017-11-06T08:59:34.714Z,6.44
2017-11-06T09:00:34.634Z,6.46
2017-11-06T09:01:34.599Z,6.48
2017-11-06T09:02:34.557Z,6.43
2017-11-06T09:03:34.529Z,6.48
2017-11-06T09:04:34.469Z,6.35
2017-11-06T09:05:34.433Z,6.26
2017-11-06T09:06:34.385Z,6.38
2017-11-06T09:07:34.350Z,6.51
2017-11-06T09:08:34.343Z,6.40
2017-11-06T09:09:34.263Z,6.43
2017-11-06T09:10:34.232Z,6.40
2017-11-06T09:11:34.183Z,6.40
2017-11-06T09:12:34.140Z,6.43
2017-11-06T09:13:34.104Z,6.47
2017-11-06T09:14:34.084Z,6.46
2017-11-06T09:15:34.021Z,6.53
2017-11-06T09:16:34.009Z,6.69
2017-11-06T09:17:33.931Z,6.69
2017-11-06T09:18:33.900Z,6.69
2017-11-06T09:19:33.854Z,6.87
2017-11-06T09:20:33.816Z,6.98
2017-11-06T09:21:33.783Z,7.01
2017-11-06T09:22:33.753Z,7.07
2017-11-06T09:23:33.688Z,7.19
2017-11-06T09:24:33.644Z,7.09
2017-11-06T09:25:33.662Z,7.07
2017-11-06T09:26:33.557Z,7.13
2017-11-06T09:27:33.591Z,7.19
2017-11-06T09:28:33.482Z,7.31
2017-11-06T09:29:33.438Z,7.40
2017-11-06T09:30:33.393Z,7.59
2017-11-06T09:31:33.364Z,7.72
2017-11-06T09:32:33.321Z,7.85
2017-11-06T09:33:33.284Z,7.90
2017-11-06T09:34:33.236Z,7.97
2017-11-06T09:35:33.215Z,7.60
2017-11-06T09:36:33.154Z,7.97
2017-11-06T09:37:33.121Z,7.50
2017-11-06T09:38:33.069Z,7.97
2017-11-06T09:39:33.049Z,7.82
2017-11-06T09:40:33.010Z,7.90
2017-11-06T09:41:32.960Z,7.67
2017-11-06T09:42:32.953Z,7.77
2017-11-06T09:43:32.893Z,7.87
2017-11-06T09:44:32.835Z,7.82
2017-11-06T09:45:32.810Z,7.60
2017-11-06T09:46:32.748Z,7.82
2017-11-06T09:47:32.723Z,7.90
2017-11-06T09:48:32.706Z,7.96
2017-11-06T09:49:32.637Z,7.97
2017-11-06T09:50:32.587Z,8.00
2017-11-06T09:51:32.546Z,7.93
2017-11-06T09:52:32.517Z,7.97
2017-11-06T09:53:32.481Z,7.93
2017-11-06T09:54:32.431Z,7.78
2017-11-06T09:55:32.423Z,7.58
2017-11-06T09:56:32.368Z,7.67
2017-11-06T09:57:32.346Z,7.81
2017-11-06T09:58:32.279Z,7.82
2017-11-06T09:59:32.237Z,7.84
2017-11-06T10:00:32.225Z,7.94
2017-11-06T10:01:32.147Z,8.00
2017-11-06T10:02:32.159Z,7.69
2017-11-06T10:03:32.069Z,7.58
2017-11-06T10:04:32.045Z,7.20
2017-11-06T10:05:31.978Z,7.37
2017-11-06T10:06:31.978Z,7.55
2017-11-06T10:07:31.910Z,7.50
2017-11-06T10:08:31.863Z,7.58
2017-11-06T10:09:31.814Z,7.41
2017-11-06T10:10:31.790Z,7.35
2017-11-06T10:11:31.739Z,7.58
2017-11-06T10:12:31.725Z,7.62
2017-11-06T10:13:31.661Z,7.62
2017-11-06T10:14:31.626Z,7.59
2017-11-06T10:15:31.575Z,7.59
2017-11-06T10:16:31.544Z,7.56
2017-11-06T10:17:31.619Z,7.50
2017-11-06T10:18:31.454Z,7.17
2017-11-06T10:19:31.426Z,7.02
2017-11-06T10:20:31.384Z,7.09
2017-11-06T10:21:31.357Z,7.16
2017-11-06T10:22:31.303Z,7.02
2017-11-06T10:23:31.256Z,7.13
2017-11-06T10:24:31.210Z,7.07
2017-11-06T10:25:31.175Z,7.24
2017-11-06T10:26:31.135Z,7.27
2017-11-06T10:27:31.088Z,7.27
2017-11-06T10:28:31.067Z,7.35
2017-11-06T10:29:31.025Z,7.27
2017-11-06T10:30:30.977Z,7.31
2017-11-06T10:31:30.928Z,7.42
2017-11-06T10:32:30.897Z,7.59
2017-11-06T10:33:30.862Z,7.49
2017-11-06T10:34:30.824Z,7.53
2017-11-06T10:35:30.793Z,7.20
2017-11-06T10:36:30.723Z,7.34
2017-11-06T10:37:30.677Z,7.31
2017-11-06T10:38:30.656Z,7.40
2017-11-06T10:39:30.603Z,7.44
2017-11-06T10:40:30.562Z,7.35
2017-11-06T10:41:30.526Z,7.31
2017-11-06T10:42:30.490Z,7.44
2017-11-06T10:43:30.428Z,7.52
2017-11-06T10:44:30.392Z,7.59
2017-11-06T10:45:30.369Z,7.56
2017-11-06T10:46:30.315Z,7.52
2017-11-06T10:47:30.323Z,7.24
2017-11-06T10:48:30.244Z,7.23
2017-11-06T10:49:30.217Z,7.27
2017-11-06T10:50:30.186Z,7.29
2017-11-06T10:51:30.110Z,7.44
2017-11-06T10:52:30.095Z,7.41
2017-11-06T10:53:30.031Z,7.32
2017-11-06T10:54:29.981Z,7.40
2017-11-06T10:55:29.953Z,7.81
2017-11-06T10:56:29.921Z,7.59
2017-11-06T10:57:29.877Z,7.42
2017-11-06T10:58:30.835Z,7.42
2017-11-06T10:59:29.791Z,7.52
2017-11-06T11:00:29.739Z,7.45
2017-11-06T11:01:29.701Z,7.60
2017-11-06T11:02:29.664Z,7.55
2017-11-06T11:03:29.606Z,7.71
2017-11-06T11:04:29.607Z,7.72
2017-11-06T11:05:29.547Z,7.84
2017-11-06T11:06:29.506Z,7.74
2017-11-06T11:07:29.471Z,7.59
2017-11-06T11:08:29.439Z,7.69
2017-11-06T11:09:29.378Z,7.79
2017-11-06T11:10:29.333Z,8.00
2017-11-06T11:11:29.319Z,8.50
2017-11-06T11:12:29.253Z,8.54
2017-11-06T11:13:29.232Z,9.04
2017-11-06T11:14:29.173Z,9.38
2017-11-06T11:15:29.203Z,8.96
2017-11-06T11:16:29.090Z,8.51
2017-11-06T11:17:29.052Z,8.42
2017-11-06T11:18:29.010Z,8.40
2017-11-06T11:19:28.986Z,8.44
2017-11-06T11:20:28.945Z,8.33
2017-11-06T11:21:28.906Z,8.40
2017-11-06T11:22:28.859Z,8.14
2017-11-06T11:23:28.806Z,7.84
2017-11-06T11:24:28.913Z,7.93
2017-11-06T11:25:28.726Z,8.02
2017-11-06T11:26:28.711Z,8.00
2017-11-06T11:27:28.649Z,8.02
2017-11-06T11:28:28.635Z,8.02
2017-11-06T11:29:28.572Z,8.12
2017-11-06T11:30:28.543Z,8.00
2017-11-06T11:31:28.515Z,8.25
2017-11-06T11:32:28.466Z,8.30
2017-11-06T11:33:28.425Z,8.32
2017-11-06T11:34:28.389Z,8.39
2017-11-06T11:35:28.361Z,8.37
2017-11-06T11:36:28.300Z,8.39
2017-11-06T11:37:28.282Z,8.35
2017-11-06T11:38:28.226Z,8.53
2017-11-06T11:39:28.206Z,8.66
2017-11-06T11:40:28.149Z,8.78
2017-11-06T11:41:28.110Z,8.72
2017-11-06T11:42:28.067Z,8.62
2017-11-06T11:43:28.100Z,8.72
2017-11-06T11:44:28.030Z,8.76
2017-11-06T11:45:27.963Z,8.75
2017-11-06T11:46:27.916Z,8.81
2017-11-06T11:47:27.873Z,8.94
2017-11-06T11:48:27.849Z,9.21
2017-11-06T11:49:27.794Z,8.99
2017-11-06T11:50:27.767Z,9.16
2017-11-06T11:51:27.780Z,9.25
2017-11-06T11:52:27.676Z,9.43
2017-11-06T11:53:27.637Z,9.57
2017-11-06T11:54:27.611Z,9.58
2017-11-06T11:55:27.595Z,9.46
2017-11-06T11:56:27.529Z,9.48
2017-11-06T11:57:27.497Z,9.56
2017-11-06T11:58:27.456Z,9.49
2017-11-06T11:59:27.465Z,9.56
2017-11-06T12:00:27.451Z,9.57
2017-11-06T12:01:27.328Z,9.78
2017-11-06T12:02:27.310Z,9.25
2017-11-06T12:03:27.242Z,9.39
2017-11-06T12:04:27.246Z,9.78
2017-11-06T12:05:27.177Z,9.63
2017-11-06T12:06:27.151Z,9.81
2017-11-06T12:07:27.090Z,9.66
2017-11-06T12:08:27.061Z,9.63
2017-11-06T12:09:27.025Z,10.03
2017-11-06T12:10:26.978Z,10.06
2017-11-06T12:11:26.980Z,9.61
2017-11-06T12:12:26.929Z,9.79
2017-11-06T12:13:26.869Z,9.40
2017-11-06T12:14:26.896Z,9.49
2017-11-06T12:15:26.800Z,9.91
2017-11-06T12:16:26.773Z,9.76
2017-11-06T12:17:26.725Z,9.58
2017-11-06T12:18:26.719Z,9.31
2017-11-06T12:19:26.658Z,9.50
2017-11-06T12:20:26.627Z,9.46
2017-11-06T12:21:26.614Z,9.66
2017-11-06T12:22:26.552Z,9.91
2017-11-06T12:23:26.532Z,9.75
2017-11-06T12:24:26.477Z,9.60
2017-11-06T12:25:26.442Z,9.32
2017-11-06T12:26:26.438Z,9.13
2017-11-06T12:27:26.400Z,9.02
2017-11-06T12:28:26.352Z,8.76
2017-11-06T12:29:26.316Z,8.72
2017-11-06T12:30:26.270Z,8.76
2017-11-06T12:31:26.285Z,8.76
2017-11-06T12:32:26.198Z,8.76
2017-11-06T12:33:26.173Z,8.86
2017-11-06T12:34:26.146Z,8.71
2017-11-06T12:35:26.099Z,8.84
2017-11-06T12:36:26.062Z,8.78
2017-11-06T12:37:26.028Z,8.66
2017-11-06T12:38:25.971Z,8.55
2017-11-06T12:39:25.933Z,8.66
2017-11-06T12:40:25.907Z,8.65
2017-11-06T12:41:25.865Z,8.65
2017-11-06T12:42:25.863Z,8.60
2017-11-06T12:43:25.794Z,8.66
2017-11-06T12:44:25.751Z,8.71
2017-11-06T12:45:25.707Z,8.66
2017-11-06T12:46:25.698Z,8.73
2017-11-06T12:47:25.690Z,8.90
2017-11-06T12:48:25.611Z,8.93
2017-11-06T12:49:25.618Z,9.05
2017-11-06T12:50:25.526Z,9.04
2017-11-06T12:51:25.522Z,9.06
2017-11-06T12:52:25.449Z,8.93
2017-11-06T12:53:25.430Z,8.91
2017-11-06T12:54:25.446Z,8.72
2017-11-06T12:55:25.336Z,8.45
2017-11-06T12:56:25.289Z,8.37
2017-11-06T12:57:25.257Z,8.47
2017-11-06T12:58:25.222Z,8.55
2017-11-06T12:59:25.201Z,8.55
2017-11-06T13:00:25.127Z,8.68
2017-11-06T13:01:25.100Z,8.76
2017-11-06T13:02:25.062Z,8.79
2017-11-06T13:03:25.029Z,8.66
2017-11-06T13:04:24.984Z,8.75
2017-11-06T13:05:24.946Z,8.73
2017-11-06T13:06:24.906Z,8.63
2017-11-06T13:07:24.911Z,8.72
2017-11-06T13:08:24.827Z,8.66
2017-11-06T13:09:26.451Z,8.54
2017-11-06T13:10:24.738Z,8.58
2017-11-06T13:11:24.725Z,8.66
2017-11-06T13:12:24.670Z,8.68
2017-11-06T13:13:24.651Z,8.44
2017-11-06T13:14:24.599Z,8.40
2017-11-06T13:15:24.552Z,8.44
2017-11-06T13:16:24.517Z,8.35
2017-11-06T13:17:24.470Z,8.42
2017-11-06T13:18:24.449Z,8.33
2017-11-06T13:19:24.393Z,8.35
2017-11-06T13:20:24.368Z,8.29
2017-11-06T13:21:24.397Z,8.28
2017-11-06T13:22:24.281Z,8.14
2017-11-06T13:23:24.254Z,8.15
2017-11-06T13:24:24.197Z,8.20
2017-11-06T13:25:24.185Z,8.22
2017-11-06T13:26:24.119Z,8.35
2017-11-06T13:27:24.087Z,8.32
2017-11-06T13:28:24.039Z,8.36
2017-11-06T13:29:23.993Z,8.37
2017-11-06T13:30:23.965Z,8.47
2017-11-06T13:31:23.910Z,8.39
2017-11-06T13:32:23.867Z,8.42
2017-11-06T13:33:23.841Z,8.35
2017-11-06T13:34:23.819Z,8.45
2017-11-06T13:35:23.753Z,8.50
2017-11-06T13:36:23.720Z,8.51
2017-11-06T13:37:23.700Z,8.44
2017-11-06T13:38:23.699Z,8.62
2017-11-06T13:39:23.599Z,8.35
2017-11-06T13:40:23.584Z,8.39
2017-11-06T13:41:23.523Z,8.35
2017-11-06T13:42:25.446Z,8.42
2017-11-06T13:43:23.433Z,8.44
2017-11-06T13:44:23.404Z,8.26
2017-11-06T13:45:23.341Z,8.28
2017-11-06T13:46:23.375Z,8.12
2017-11-06T13:47:23.293Z,8.33
2017-11-06T13:48:23.241Z,8.22
2017-11-06T13:49:23.199Z,8.15
2017-11-06T13:50:23.158Z,8.10
2017-11-06T13:51:23.124Z,8.17
2017-11-06T13:52:23.178Z,8.17
2017-11-06T13:53:23.038Z,8.15
2017-11-06T13:54:23.005Z,8.29
2017-11-06T13:55:22.944Z,8.21
2017-11-06T13:56:22.908Z,8.22
2017-11-06T13:57:22.875Z,8.29
2017-11-06T13:58:22.821Z,8.25
2017-11-06T13:59:22.798Z,8.15
2017-11-06T14:00:22.742Z,8.20
2017-11-06T14:01:22.724Z,8.08
2017-11-06T14:02:22.688Z,8.11
2017-11-06T14:03:22.634Z,8.20
2017-11-06T14:04:22.604Z,8.15
2017-11-06T14:05:22.542Z,7.99
2017-11-06T14:06:22.509Z,8.14
2017-11-06T14:07:22.475Z,8.00
2017-11-06T14:08:22.556Z,7.99
2017-11-06T14:09:22.382Z,8.10
2017-11-06T14:10:22.345Z,7.97
2017-11-06T14:11:22.357Z,7.93
2017-11-06T14:12:22.266Z,7.92
2017-11-06T14:13:22.226Z,7.79
2017-11-06T14:14:22.195Z,7.82
2017-11-06T14:15:22.179Z,7.74
2017-11-06T14:16:22.119Z,7.58
2017-11-06T14:17:22.072Z,7.63
2017-11-06T14:18:22.020Z,7.45
2017-11-06T14:19:21.982Z,7.55
2017-11-06T14:20:21.932Z,7.42
2017-11-06T14:21:21.913Z,7.37
2017-11-06T14:22:21.852Z,7.31
2017-11-06T14:23:21.825Z,7.35
2017-11-06T14:24:21.805Z,7.32
2017-11-06T14:25:21.727Z,7.38
2017-11-06T14:26:21.774Z,7.37
2017-11-06T14:27:21.638Z,7.38
2017-11-06T14:28:21.648Z,7.38
2017-11-06T14:29:21.566Z,7.34
2017-11-06T14:30:21.528Z,7.35
2017-11-06T14:31:21.517Z,7.31
2017-11-06T14:32:21.456Z,7.19
2017-11-06T14:33:21.460Z,7.16
2017-11-06T14:34:21.364Z,7.19
2017-11-06T14:35:21.316Z,7.13
2017-11-06T14:36:21.280Z,7.08
2017-11-06T14:37:21.263Z,6.99
2017-11-06T14:38:21.194Z,7.05
2017-11-06T14:39:21.165Z,6.97
2017-11-06T14:40:21.106Z,7.01
2017-11-06T14:41:21.097Z,6.99
2017-11-06T14:42:21.024Z,6.99
2017-11-06T14:43:21.002Z,7.04
2017-11-06T14:44:20.965Z,7.01
2017-11-06T14:45:20.947Z,6.99
2017-11-06T14:46:20.888Z,7.02
2017-11-06T14:47:20.834Z,7.05
2017-11-06T14:48:20.772Z,6.90
2017-11-06T14:49:20.798Z,6.94
2017-11-06T14:50:20.700Z,6.90
2017-11-06T14:51:20.832Z,6.94
2017-11-06T14:52:20.609Z,7.01
2017-11-06T14:53:20.565Z,7.01
2017-11-06T14:54:20.510Z,6.99
2017-11-06T14:55:20.490Z,6.95
2017-11-06T14:56:20.432Z,7.01
2017-11-06T14:57:20.411Z,6.98